San Juan, PR

8:07 PM AST on February 28, 2015 (GMT -0400)
Condado, Calle Earle, At The Ocean | Change Station
CLOSE
Current Station
Personal Weather Station
Location: San Juan, SAN JUAN
Elevation: 10 ft
Nearby Weather Stations

Elev 10 ft 18.46 °N, 66.07 °W | Updated 32 seconds ago

Rain
Rain
73.9 °F
Feels Like 73 °F
N
1.0
Wind Variable Wind from NNW
Gusts 2.0 mph

Today
High -- | Low -- °F
--% Chance of Precip.
Yesterday
High -- | Low -- °F
Precip. -- in
6:44 AM 6:29 PM
Waxing Gibbous, 81% visible
Pressure 30.12 in
Visibility 10.0 miles
Clouds Few 2200 ft
Scattered Clouds 5000 ft
Mostly Cloudy 6000 ft
Heat Index 73 °F
Dew Point 70 °F
Humidity 87%
Rainfall 0.05 in
Snow Depth Not available.
UV 0 out of 12
Pollen Not available.
Air Quality Not available.
Flu Activity Not available.
METAR TJSJ 282356Z 12003KT 10SM FEW022 SCT050 BKN060 24/21 A3012 RMK AO2 PK WND 08032/2258 RAE55 SLP197 VCSH E P0001 60002 T02390211 10283 20222 51010

More Conditions Fewer Conditions

Pressure 30.12 in
Visibility 10.0 miles
Clouds Few 2200 ft
Scattered Clouds 5000 ft
Mostly Cloudy 6000 ft
Heat Index 73 °F
Dew Point 70 °F
Humidity 87%
Rainfall 0.05 in
Snow Depth Not available.
UV 0 out of 12
Pollen Not available.
Air Quality Not available.
Flu Activity Not available.
METAR TJSJ 282356Z 12003KT 10SM FEW022 SCT050 BKN060 24/21 A3012 RMK AO2 PK WND 08032/2258 RAE55 SLP197 VCSH E P0001 60002 T02390211 10283 20222 51010

More Conditions Fewer Conditions

10-Day Weather Forecast

Almanac

Astronomy

Feb. 28, 2015 Rise Set
Actual Time
Civil Twilight
Nautical Twilight
Astronomical Twilight
Moon
Length of Visible Light
Length of Day
Tomorrow will be .
, % of the Moon is Illuminated

Today's Extremes

State Highs State Lows

Community

WunderPhotos

Upload Photos

1,801,176 photos uploaded!

WunderBlogs® & News

Nearby

Air Quality

  Air Quality AQ Index Pollutant
Not available.

Snow Depth

Station Depth Elevation

Earthquake Activity

City Distance Mag. Time & Date
Minimum magnitude displayed is 2.5.

Coastal Water Temperatures

Place Temperature

Nearby Weather Stations